createdAt,value
2023-04-18T00:04:26.771Z,99221.41
2023-04-18T00:09:29.257Z,99212.66
2023-04-18T00:14:31.719Z,99268.94
2023-04-18T00:19:34.461Z,99245.25
2023-04-18T00:24:36.875Z,99291.41
2023-04-18T00:29:40.683Z,99258.75
2023-04-18T00:34:43.077Z,99215.69
2023-04-18T00:39:45.472Z,99208.06
2023-04-18T00:44:48.228Z,99191.44
2023-04-18T00:49:50.699Z,99253.47
2023-04-18T00:54:53.330Z,99203.34
2023-04-18T00:59:55.983Z,99253.81
2023-04-18T01:05:00.940Z,99193.50
2023-04-18T01:10:04.438Z,99186.72
2023-04-18T01:15:08.187Z,99275.56
2023-04-18T01:20:12.597Z,99173.88
2023-04-18T01:25:15.873Z,99207.81
2023-04-18T01:30:18.261Z,99244.44
2023-04-18T01:35:20.610Z,99192.41
2023-04-18T01:40:23.096Z,99095.03
2023-04-18T01:45:25.685Z,99153.16
2023-04-18T01:50:28.135Z,99135.22
2023-04-18T01:55:30.665Z,99155.53
2023-04-18T02:00:33.143Z,99166.66
2023-04-18T02:05:37.797Z,99222.50
2023-04-18T02:10:42.882Z,99135.72
2023-04-18T02:15:46.067Z,99051.78
2023-04-18T02:20:51.614Z,99118.41
2023-04-18T02:25:53.981Z,99173.59
2023-04-18T02:30:56.360Z,99117.38
2023-04-18T02:35:58.566Z,99218.22
2023-04-18T02:41:00.981Z,99133.97
2023-04-18T02:46:03.391Z,99075.59
2023-04-18T02:51:07.822Z,99119.53
2023-04-18T02:56:14.891Z,99161.94
2023-04-18T03:01:35.928Z,99093.94
2023-04-18T03:06:44.828Z,99147.66
2023-04-18T03:11:47.346Z,99149.81
2023-04-18T03:16:54.593Z,99127.28
2023-04-18T03:22:01.269Z,99065.59
2023-04-18T03:27:04.415Z,99144.69
2023-04-18T03:32:06.930Z,99121.31
2023-04-18T03:37:09.465Z,99135.97
2023-04-18T03:42:17.620Z,99187.63
2023-04-18T03:47:20.639Z,99173.38
2023-04-18T03:52:29.918Z,99174.94
2023-04-18T03:57:32.651Z,99195.16
2023-04-18T04:02:36.195Z,99230.13
2023-04-18T04:07:38.731Z,99202.53
2023-04-18T04:12:42.164Z,99240.19
2023-04-18T04:17:44.812Z,99196.19
2023-04-18T04:22:47.612Z,99156.66
2023-04-18T04:27:53.839Z,99145.72
2023-04-18T04:32:57.651Z,99238.19
2023-04-18T04:38:01.760Z,99231.06
2023-04-18T04:43:15.720Z,99199.97
2023-04-18T04:48:21.979Z,99235.31
2023-04-18T04:53:32.113Z,99212.88
2023-04-18T04:58:36.978Z,99242.25
2023-04-18T05:03:45.386Z,99205.91
2023-04-18T05:08:51.605Z,99216.16
2023-04-18T05:13:53.936Z,99221.44
2023-04-18T05:18:56.187Z,99199.56
2023-04-18T05:23:58.466Z,99268.09
2023-04-18T05:29:00.995Z,99278.47
2023-04-18T05:34:03.273Z,99216.81
2023-04-18T05:39:05.542Z,99269.88
2023-04-18T05:44:08.066Z,99269.38
2023-04-18T05:49:10.424Z,99226.03
2023-04-18T05:54:13.640Z,99285.38
2023-04-18T05:59:16.179Z,99252.53
2023-04-18T06:04:19.432Z,99298.06
2023-04-18T06:09:21.994Z,99303.53
2023-04-18T06:14:24.572Z,99288.50
2023-04-18T06:19:26.867Z,99288.56
2023-04-18T06:24:31.224Z,99330.25
2023-04-18T06:29:35.592Z,99295.72
2023-04-18T06:34:38.541Z,99283.53
2023-04-18T06:39:40.841Z,99283.22
2023-04-18T06:44:43.388Z,99316.00
2023-04-18T06:49:45.698Z,99267.72
2023-04-18T06:54:47.986Z,99312.81
2023-04-18T06:59:50.287Z,99295.81
2023-04-18T07:04:52.576Z,99295.38
2023-04-18T07:09:55.169Z,99295.09
2023-04-18T07:14:57.427Z,99290.22
2023-04-18T07:20:00.888Z,99327.31
2023-04-18T07:25:03.201Z,99255.38
2023-04-18T07:30:06.442Z,99322.88
2023-04-18T07:35:09.259Z,99305.63
2023-04-18T07:40:12.326Z,99293.09
2023-04-18T07:45:15.672Z,99346.84
2023-04-18T07:50:18.132Z,99327.09
2023-04-18T07:55:20.749Z,99336.34
2023-04-18T08:00:23.111Z,99376.00
2023-04-18T08:05:25.540Z,99329.25
2023-04-18T08:10:28.006Z,99382.88
2023-04-18T08:15:32.876Z,99302.00
2023-04-18T08:20:37.257Z,99387.53
2023-04-18T08:25:39.711Z,99374.34
2023-04-18T08:30:42.814Z,99308.91
2023-04-18T08:35:45.064Z,99372.22
2023-04-18T08:40:48.125Z,99280.41
2023-04-18T08:45:50.831Z,99357.72
2023-04-18T08:50:58.714Z,99385.69
2023-04-18T08:56:01.563Z,99293.94
2023-04-18T09:01:04.028Z,99318.09
2023-04-18T09:06:12.738Z,99348.91
2023-04-18T09:11:42.630Z,99307.13
2023-04-18T09:16:48.057Z,99316.78
2023-04-18T09:22:01.012Z,99397.25
2023-04-18T09:27:04.422Z,99394.75
2023-04-18T09:32:07.114Z,99334.72
2023-04-18T09:37:12.578Z,99321.16
2023-04-18T09:42:14.844Z,99304.88
2023-04-18T09:47:16.953Z,99374.88
2023-04-18T09:52:21.242Z,99349.88
2023-04-18T09:57:28.780Z,99383.56
2023-04-18T10:02:45.248Z,99358.56
2023-04-18T10:07:49.956Z,99344.38
2023-04-18T10:12:56.563Z,99369.66
2023-04-18T10:18:11.127Z,99361.78
2023-04-18T10:23:40.628Z,99376.56
2023-04-18T10:28:59.614Z,99360.41
2023-04-18T10:34:06.319Z,99347.84
2023-04-18T10:39:25.702Z,99405.94
2023-04-18T10:44:28.186Z,99349.72
2023-04-18T10:49:34.088Z,99365.41
2023-04-18T10:54:55.187Z,99336.19
2023-04-18T10:59:58.524Z,99365.13
2023-04-18T11:05:04.586Z,99332.38
2023-04-18T11:10:09.579Z,99410.31
2023-04-18T11:15:23.774Z,99400.69
2023-04-18T11:20:26.775Z,99329.63
2023-04-18T11:25:37.095Z,99379.53
2023-04-18T11:30:41.288Z,99368.16
2023-04-18T11:35:47.392Z,99386.28
2023-04-18T11:40:50.709Z,99308.50
2023-04-18T11:46:00.710Z,99384.34
2023-04-18T11:51:03.119Z,99347.75
2023-04-18T11:56:06.515Z,99430.44
2023-04-18T12:01:20.661Z,99422.59
2023-04-18T12:06:23.248Z,99398.81
2023-04-18T12:11:25.700Z,99354.44
2023-04-18T12:16:28.475Z,99397.63
2023-04-18T12:21:33.215Z,99438.09
2023-04-18T12:26:44.887Z,99442.47
2023-04-18T12:31:48.246Z,99463.88
2023-04-18T12:36:50.717Z,99461.47
2023-04-18T12:41:53.026Z,99401.88
2023-04-18T12:46:55.562Z,99411.19
2023-04-18T12:51:57.971Z,99370.50
2023-04-18T12:57:01.637Z,99364.91
2023-04-18T13:02:04.150Z,99393.81
2023-04-18T13:07:06.547Z,99395.78
2023-04-18T13:12:08.762Z,99438.13
2023-04-18T13:17:11.081Z,99447.28
2023-04-18T13:22:13.450Z,99348.72
2023-04-18T13:27:15.969Z,99443.31
2023-04-18T13:32:18.427Z,99399.59
2023-04-18T13:37:20.948Z,99445.78
2023-04-18T13:42:23.234Z,99340.53
2023-04-18T13:47:25.944Z,99451.31
2023-04-18T13:52:28.337Z,99397.44
2023-04-18T13:57:32.402Z,99397.56
2023-04-18T14:02:34.900Z,99446.69
2023-04-18T14:07:38.565Z,99373.03
2023-04-18T14:12:41.080Z,99453.81
2023-04-18T14:17:44.849Z,99363.53
2023-04-18T14:22:52.861Z,99382.94
2023-04-18T14:28:08.866Z,99471.56
2023-04-18T14:33:11.387Z,99390.34
2023-04-18T14:38:13.688Z,99335.47
2023-04-18T14:43:16.167Z,99394.41
2023-04-18T14:48:18.371Z,99370.22
2023-04-18T14:53:21.426Z,99475.09
2023-04-18T14:58:23.849Z,99329.44
2023-04-18T15:03:26.174Z,99366.91
2023-04-18T15:08:28.730Z,99470.56
2023-04-18T15:13:31.462Z,99420.81
2023-04-18T15:18:33.777Z,99373.69
2023-04-18T15:23:36.026Z,99339.53
2023-04-18T15:28:38.328Z,99354.94
2023-04-18T15:33:40.601Z,99304.91
2023-04-18T15:38:42.931Z,99385.22
2023-04-18T15:43:45.574Z,99442.34
2023-04-18T15:48:47.709Z,99310.34
2023-04-18T15:53:49.997Z,99443.53
2023-04-18T15:58:52.233Z,99411.03
2023-04-18T16:03:54.498Z,99391.50
2023-04-18T16:08:56.903Z,99334.41
2023-04-18T16:13:59.002Z,99368.31
2023-04-18T16:19:01.604Z,99347.94
2023-04-18T16:24:03.840Z,99496.78
2023-04-18T16:29:06.359Z,99394.19
2023-04-18T16:34:09.571Z,99446.00
2023-04-18T16:39:12.815Z,99390.63
2023-04-18T16:44:15.284Z,99342.09
2023-04-18T16:49:17.867Z,99400.69
2023-04-18T16:54:19.991Z,99388.06
2023-04-18T16:59:22.346Z,99316.81
2023-04-18T17:04:27.089Z,99313.66
2023-04-18T17:09:30.143Z,99404.28
2023-04-18T17:14:32.386Z,99375.81
2023-04-18T17:19:34.605Z,99348.00
2023-04-18T17:24:36.728Z,99287.53
2023-04-18T17:29:38.911Z,99308.91
2023-04-18T17:34:41.107Z,99265.75
2023-04-18T17:39:44.557Z,99406.22
2023-04-18T17:44:46.797Z,99262.97
2023-04-18T17:49:49.217Z,99347.63
2023-04-18T17:54:51.697Z,99326.25
2023-04-18T17:59:54.356Z,99262.59
2023-04-18T18:04:56.628Z,99281.22
2023-04-18T18:09:58.892Z,99269.72
2023-04-18T18:15:01.196Z,99285.91
2023-04-18T18:20:10.699Z,99239.16
2023-04-18T18:25:13.085Z,99302.69
2023-04-18T18:30:15.585Z,99321.25
2023-04-18T18:35:18.002Z,99309.44
2023-04-18T18:40:20.520Z,99355.44
2023-04-18T18:45:23.051Z,99316.59
2023-04-18T18:50:25.214Z,99238.47
2023-04-18T18:55:27.727Z,99281.47
2023-04-18T19:00:30.088Z,99296.28
2023-04-18T19:05:32.361Z,99346.31
2023-04-18T19:10:34.798Z,99366.06
2023-04-18T19:15:37.257Z,99277.41
2023-04-18T19:20:40.453Z,99261.28
2023-04-18T19:25:42.830Z,99326.03
2023-04-18T19:30:46.547Z,99249.97
2023-04-18T19:35:48.809Z,99341.06
2023-04-18T19:40:51.187Z,99224.00
2023-04-18T19:45:55.262Z,99306.63
2023-04-18T19:50:57.862Z,99292.31
2023-04-18T19:56:00.002Z,99388.56
2023-04-18T20:01:02.832Z,99268.69
2023-04-18T20:06:06.370Z,99234.91
2023-04-18T20:11:10.698Z,99233.28
2023-04-18T20:16:12.963Z,99308.06
2023-04-18T20:21:15.701Z,99382.84
2023-04-18T20:26:17.992Z,99274.69
2023-04-18T20:31:20.410Z,99323.00
2023-04-18T20:36:23.741Z,99330.13
2023-04-18T20:41:27.207Z,99293.81
2023-04-18T20:46:29.569Z,99379.03
2023-04-18T20:51:31.992Z,99272.44
2023-04-18T20:56:36.043Z,99297.28
2023-04-18T21:01:38.193Z,99381.31
2023-04-18T21:06:40.446Z,99277.91
2023-04-18T21:11:42.835Z,99284.97
2023-04-18T21:16:45.102Z,99399.88
2023-04-18T21:21:47.376Z,99359.50
2023-04-18T21:26:49.526Z,99289.59
2023-04-18T21:31:51.793Z,99336.66
2023-04-18T21:36:54.230Z,99322.41
2023-04-18T21:41:57.305Z,99247.31
2023-04-18T21:46:59.561Z,99180.06
2023-04-18T21:52:01.783Z,99327.78
2023-04-18T21:57:05.902Z,99281.94
2023-04-18T22:02:08.373Z,99315.66
2023-04-18T22:07:12.531Z,99266.91
2023-04-18T22:12:15.807Z,99279.66
2023-04-18T22:17:17.948Z,99211.19
2023-04-18T22:22:20.248Z,99334.22
2023-04-18T22:27:22.550Z,99339.63
2023-04-18T22:32:24.891Z,99273.44
2023-04-18T22:37:27.161Z,99348.13
2023-04-18T22:42:30.021Z,99388.56
2023-04-18T22:47:32.751Z,99404.78
2023-04-18T22:52:35.123Z,99266.63
2023-04-18T22:57:38.981Z,99386.81
2023-04-18T23:02:41.686Z,99222.16
2023-04-18T23:07:44.243Z,99373.25
2023-04-18T23:12:46.591Z,99345.91
2023-04-18T23:17:51.301Z,99307.50
2023-04-18T23:22:55.292Z,99336.97
2023-04-18T23:27:57.521Z,99328.28
2023-04-18T23:32:59.872Z,99364.53
2023-04-18T23:38:02.353Z,99327.66
2023-04-18T23:43:04.680Z,99398.72
2023-04-18T23:48:07.113Z,99326.16
2023-04-18T23:53:09.437Z,99343.97
2023-04-18T23:58:11.815Z,99370.13
